Time;durP1;ratioP1;P1;durP2;ratioP2;P2;SDS_P1;SDS_P2;PMS_P1;PMS_P2;Temp;Humidity;BMP_temperature;BMP_pressure;BME280_temperature;BME280_humidity;BME280_pressure;Samples;Min_cycle;Max_cycle;Signal;HPM_P1;HPM_P2
2021/05/30 00:01:51;;;;;;;6.55;5.88;;;12.50;97.50;;;;;;5073201;28;20024;-78
2021/05/30 00:04:17;;;;;;;7.22;5.95;;;12.50;97.50;;;;;;5073182;28;20013;-77
2021/05/30 00:06:43;;;;;;;7.80;5.80;;;12.50;97.60;;;;;;5073002;28;20036;-77
2021/05/30 00:09:08;;;;;;;6.38;5.38;;;12.50;97.60;;;;;;5073013;28;20206;-77
2021/05/30 00:11:35;;;;;;;7.68;6.38;;;12.40;97.60;;;;;;5071927;28;20031;-77
2021/05/30 00:14:03;;;;;;;9.07;7.57;;;12.40;97.70;;;;;;5072959;28;20055;-78
2021/05/30 00:16:28;;;;;;;7.72;6.22;;;12.30;97.80;;;;;;5072855;28;20388;-78
2021/05/30 00:18:54;;;;;;;9.32;6.70;;;12.30;97.90;;;;;;5072885;28;20476;-77
2021/05/30 00:21:19;;;;;;;10.73;6.97;;;12.20;97.90;;;;;;5072776;28;20468;-77
2021/05/30 00:23:45;;;;;;;8.02;6.38;;;12.10;98.10;;;;;;5073028;28;20028;-78
2021/05/30 00:26:10;;;;;;;7.70;6.53;;;12.10;98.30;;;;;;5072768;28;20066;-78
2021/05/30 00:28:36;;;;;;;8.93;7.03;;;12.00;98.40;;;;;;5072995;28;20031;-78
2021/05/30 00:31:01;;;;;;;8.38;7.15;;;11.90;98.50;;;;;;5072879;28;20480;-78
2021/05/30 00:33:27;;;;;;;6.85;5.88;;;11.90;98.80;;;;;;5072899;28;20043;-78
2021/05/30 00:35:52;;;;;;;8.38;6.10;;;11.80;98.80;;;;;;5071381;28;20028;-78
2021/05/30 00:38:18;;;;;;;8.43;6.93;;;11.80;98.90;;;;;;5072603;28;20035;-78
2021/05/30 00:40:43;;;;;;;11.05;7.80;;;11.70;99.10;;;;;;5071315;28;20538;-78
2021/05/30 00:43:09;;;;;;;9.13;7.07;;;11.60;99.20;;;;;;5072856;28;20056;-78
2021/05/30 00:45:35;;;;;;;9.02;7.38;;;11.60;99.30;;;;;;5074696;28;20107;-78
2021/05/30 00:48:01;;;;;;;7.60;6.75;;;11.60;99.30;;;;;;5076649;28;20106;-78
2021/05/30 00:50:27;;;;;;;7.90;6.45;;;11.60;99.20;;;;;;5076377;28;20060;-77
2021/05/30 00:52:53;;;;;;;9.07;6.88;;;11.60;99.30;;;;;;5076505;28;20025;-77
2021/05/30 00:55:20;;;;;;;7.47;6.30;;;11.60;99.20;;;;;;5075092;28;20032;-77
2021/05/30 00:57:45;;;;;;;8.60;6.90;;;11.50;99.30;;;;;;5076497;28;20100;-77
2021/05/30 01:00:13;;;;;;;8.88;6.75;;;11.50;99.20;;;;;;5076337;28;20052;-77
2021/05/30 01:02:39;;;;;;;12.07;8.52;;;11.50;99.20;;;;;;5076352;28;20369;-78
2021/05/30 01:05:07;;;;;;;10.85;7.72;;;11.50;99.30;;;;;;5076190;28;20082;-77
2021/05/30 01:07:39;;;;;;;9.55;7.18;;;11.40;99.30;;;;;;5076037;28;20036;-78
2021/05/30 01:10:22;;;;;;;7.65;6.63;;;11.40;99.30;;;;;;5076166;28;20029;-78
2021/05/30 01:12:49;;;;;;;7.35;6.35;;;11.40;99.20;;;;;;5076324;28;20039;-77
2021/05/30 01:15:16;;;;;;;8.68;6.68;;;11.40;99.30;;;;;;5075829;28;20054;-77
2021/05/30 01:17:43;;;;;;;9.68;7.28;;;11.40;99.20;;;;;;5076053;28;20107;-77
2021/05/30 01:20:14;;;;;;;8.38;7.43;;;11.40;99.20;;;;;;5075978;28;20020;-77
2021/05/30 01:22:40;;;;;;;10.75;6.72;;;11.50;99.20;;;;;;5075981;28;20024;-77
2021/05/30 01:25:07;;;;;;;8.50;7.18;;;11.40;99.10;;;;;;5075877;28;20035;-77
2021/05/30 01:27:32;;;;;;;7.60;6.75;;;11.40;99.10;;;;;;5075907;28;20040;-77
2021/05/30 01:29:58;;;;;;;10.02;7.93;;;11.40;99.20;;;;;;5075809;28;20028;-77
2021/05/30 01:32:23;;;;;;;8.32;6.85;;;11.30;99.20;;;;;;5075792;28;20491;-77
2021/05/30 01:34:49;;;;;;;10.15;7.45;;;11.20;99.20;;;;;;5075646;28;20072;-78
2021/05/30 01:37:14;;;;;;;9.38;7.55;;;11.20;99.30;;;;;;5075717;28;20024;-78
2021/05/30 01:39:40;;;;;;;9.05;8.00;;;11.20;99.40;;;;;;5075325;28;20120;-78
2021/05/30 01:42:06;;;;;;;10.82;8.88;;;11.20;99.40;;;;;;5074291;28;20159;-77
2021/05/30 01:44:32;;;;;;;10.90;8.32;;;11.10;99.40;;;;;;5075618;28;20025;-78
2021/05/30 01:46:57;;;;;;;9.55;8.20;;;11.00;99.50;;;;;;5075521;28;20036;-77
2021/05/30 01:49:23;;;;;;;10.73;8.05;;;10.90;99.60;;;;;;5075526;28;20471;-77
2021/05/30 01:51:48;;;;;;;9.32;6.97;;;10.90;99.60;;;;;;5075318;28;20024;-78
2021/05/30 01:54:16;;;;;;;10.38;7.57;;;10.90;99.50;;;;;;5075262;28;20032;-77
2021/05/30 01:56:57;;;;;;;8.23;7.18;;;10.90;99.40;;;;;;5074094;28;20476;-77
2021/05/30 01:59:28;;;;;;;8.15;7.03;;;10.90;99.60;;;;;;5075390;28;20025;-77
2021/05/30 02:01:57;;;;;;;9.43;7.18;;;10.90;99.20;;;;;;5075139;28;20025;-77
2021/05/30 02:04:40;;;;;;;8.18;6.85;;;10.80;99.30;;;;;;5074046;28;20017;-77
2021/05/30 02:07:06;;;;;;;7.82;6.90;;;10.80;99.30;;;;;;5073930;28;20078;-77
2021/05/30 02:09:34;;;;;;;8.50;6.90;;;10.70;99.40;;;;;;5073688;28;20040;-77
2021/05/30 02:11:59;;;;;;;10.05;7.93;;;10.70;99.40;;;;;;5075036;28;20112;-77
2021/05/30 02:14:25;;;;;;;9.50;7.70;;;10.60;99.50;;;;;;5074975;28;20056;-77
2021/05/30 02:16:51;;;;;;;9.18;7.25;;;10.60;99.60;;;;;;5073574;28;20052;-77
2021/05/30 02:19:16;;;;;;;7.60;6.35;;;10.60;99.60;;;;;;5074955;28;20027;-77
2021/05/30 02:21:44;;;;;;;9.65;7.45;;;10.50;99.50;;;;;;5074755;28;20025;-77
2021/05/30 02:24:12;;;;;;;9.98;7.38;;;10.50;99.50;;;;;;5074646;28;20024;-77
2021/05/30 02:26:38;;;;;;;10.32;7.78;;;10.50;99.60;;;;;;5073390;28;20028;-77
2021/05/30 02:29:05;;;;;;;8.93;7.10;;;10.50;99.70;;;;;;5074779;28;20038;-77
2021/05/30 02:31:31;;;;;;;9.90;7.95;;;10.40;99.70;;;;;;5074585;28;20052;-77
2021/05/30 02:33:57;;;;;;;11.13;8.38;;;10.40;99.70;;;;;;5074679;28;20020;-77
2021/05/30 02:36:23;;;;;;;9.93;7.25;;;10.40;99.60;;;;;;5073192;28;20373;-77
2021/05/30 02:38:48;;;;;;;8.52;6.55;;;10.40;99.60;;;;;;5074106;28;20052;-77
2021/05/30 02:41:14;;;;;;;8.52;6.60;;;10.40;99.50;;;;;;5074413;28;20028;-77
2021/05/30 02:43:40;;;;;;;8.88;7.22;;;10.30;99.50;;;;;;5073220;28;20020;-77
2021/05/30 02:46:05;;;;;;;9.80;7.60;;;10.40;99.50;;;;;;5074347;28;20028;-77
2021/05/30 02:48:31;;;;;;;10.82;8.32;;;10.30;99.40;;;;;;5073037;28;20506;-77
2021/05/30 02:50:59;;;;;;;11.75;8.18;;;10.30;99.40;;;;;;5074264;28;20025;-77
2021/05/30 02:53:34;;;;;;;13.57;9.20;;;10.20;99.50;;;;;;5074268;28;20079;-77
2021/05/30 02:56:01;;;;;;;14.75;9.20;;;10.20;99.60;;;;;;5074022;28;20039;-77
2021/05/30 02:58:29;;;;;;;13.38;9.38;;;10.10;99.70;;;;;;5074126;28;20094;-78
2021/05/30 03:00:55;;;;;;;10.00;8.27;;;10.10;99.70;;;;;;5074018;28;20032;-77
2021/05/30 03:03:21;;;;;;;9.38;7.72;;;10.10;99.70;;;;;;5074031;28;20028;-77
2021/05/30 03:05:46;;;;;;;12.32;9.00;;;10.10;99.70;;;;;;5072607;28;20437;-77
2021/05/30 03:08:12;;;;;;;12.30;9.43;;;10.10;99.70;;;;;;5072498;28;20024;-77
2021/05/30 03:10:38;;;;;;;12.10;9.27;;;10.10;99.80;;;;;;5073804;28;20032;-77
2021/05/30 03:13:03;;;;;;;12.27;9.60;;;10.00;99.80;;;;;;5073814;28;20024;-77
2021/05/30 03:15:30;;;;;;;13.50;9.63;;;10.00;99.90;;;;;;5073675;28;20510;-77
2021/05/30 03:17:55;;;;;;;13.45;11.40;;;9.90;99.90;;;;;;5053834;28;20029;-77
2021/05/30 03:20:21;;;;;;;14.98;11.20;;;9.90;99.90;;;;;;5053723;28;20025;-77
2021/05/30 03:22:46;;;;;;;14.63;10.63;;;9.90;99.90;;;;;;5053643;28;20028;-77
2021/05/30 03:25:13;;;;;;;15.68;11.32;;;9.90;99.90;;;;;;5053506;28;20099;-77
2021/05/30 03:27:38;;;;;;;13.93;11.15;;;9.80;99.90;;;;;;5052339;28;20068;-78
2021/05/30 03:30:05;;;;;;;17.40;10.27;;;9.80;99.90;;;;;;5053661;28;20064;-78
2021/05/30 03:32:31;;;;;;;13.05;9.85;;;9.80;99.90;;;;;;5053524;28;20104;-78
2021/05/30 03:34:56;;;;;;;14.30;10.30;;;9.80;99.90;;;;;;5053462;28;20594;-78
2021/05/30 03:37:22;;;;;;;15.23;11.32;;;9.80;99.90;;;;;;5053492;28;20496;-77
2021/05/30 03:39:48;;;;;;;10.73;8.93;;;9.70;99.90;;;;;;5053282;28;20045;-77
2021/05/30 03:42:21;;;;;;;12.25;9.57;;;9.80;99.90;;;;;;5053206;28;20147;-77
2021/05/30 03:44:47;;;;;;;10.18;8.23;;;9.80;99.90;;;;;;5068753;28;20028;-77
2021/05/30 03:47:13;;;;;;;11.23;8.18;;;9.70;99.90;;;;;;5053363;28;20025;-77
2021/05/30 03:49:40;;;;;;;11.32;8.57;;;9.70;99.90;;;;;;5053253;28;20025;-77
2021/05/30 03:52:06;;;;;;;10.95;7.88;;;9.70;99.90;;;;;;5053169;28;20035;-77
2021/05/30 03:54:32;;;;;;;10.85;8.57;;;9.70;99.90;;;;;;5051919;28;20424;-77
2021/05/30 03:56:57;;;;;;;11.50;7.53;;;9.70;99.90;;;;;;5052982;28;20021;-77
2021/05/30 03:59:23;;;;;;;10.00;7.45;;;9.80;99.90;;;;;;5053351;28;20035;-77
2021/05/30 04:01:48;;;;;;;9.23;7.25;;;9.70;99.90;;;;;;5051296;28;20108;-77
2021/05/30 04:04:14;;;;;;;10.50;7.60;;;9.80;99.90;;;;;;5051599;28;20152;-77
2021/05/30 04:06:39;;;;;;;10.02;7.57;;;9.80;99.90;;;;;;5050860;28;20025;-77
2021/05/30 04:09:05;;;;;;;10.23;7.60;;;9.80;99.90;;;;;;5053143;28;20025;-77
2021/05/30 04:11:31;;;;;;;8.80;7.35;;;9.80;99.90;;;;;;5068324;28;20061;-77
2021/05/30 04:13:56;;;;;;;13.50;7.82;;;9.70;99.90;;;;;;5053079;28;20021;-77
2021/05/30 04:16:22;;;;;;;11.40;7.90;;;9.80;99.90;;;;;;5060031;28;20066;-77
2021/05/30 04:18:47;;;;;;;8.32;6.53;;;9.80;99.90;;;;;;5073014;28;20027;-77
2021/05/30 04:21:13;;;;;;;12.13;8.38;;;9.80;99.90;;;;;;5076281;28;20096;-77
2021/05/30 04:23:39;;;;;;;9.35;7.47;;;9.80;99.90;;;;;;5075794;28;20048;-77
2021/05/30 04:26:04;;;;;;;9.95;6.95;;;9.80;99.90;;;;;;5075795;28;20104;-77
2021/05/30 04:28:30;;;;;;;10.10;8.00;;;9.90;99.90;;;;;;5076873;28;20497;-77
2021/05/30 04:30:56;;;;;;;11.50;8.43;;;9.90;99.90;;;;;;5077104;28;20025;-77
2021/05/30 04:33:21;;;;;;;10.02;7.88;;;9.90;99.90;;;;;;5076936;28;20538;-77
2021/05/30 04:35:48;;;;;;;11.77;8.02;;;9.90;99.90;;;;;;5076766;28;20104;-77
2021/05/30 04:38:13;;;;;;;11.55;8.85;;;9.90;99.90;;;;;;5076833;28;20104;-78
2021/05/30 04:40:39;;;;;;;9.90;8.02;;;9.90;99.90;;;;;;5076731;28;20106;-78
2021/05/30 04:43:05;;;;;;;11.80;8.55;;;9.90;99.90;;;;;;5075264;28;20027;-78
2021/05/30 04:45:30;;;;;;;14.75;8.77;;;10.00;99.90;;;;;;5076722;28;20017;-77
2021/05/30 04:47:56;;;;;;;12.88;8.43;;;9.90;99.90;;;;;;5076558;28;20475;-77
2021/05/30 04:50:21;;;;;;;11.82;8.80;;;10.00;99.90;;;;;;5076667;28;20039;-77
2021/05/30 04:52:47;;;;;;;11.57;8.50;;;10.00;99.90;;;;;;5076519;28;20056;-77
2021/05/30 04:55:12;;;;;;;14.02;9.35;;;10.00;99.90;;;;;;5076441;28;20071;-78
2021/05/30 04:57:44;;;;;;;15.43;11.57;;;10.10;99.90;;;;;;5076322;28;20027;-77
2021/05/30 05:00:11;;;;;;;14.43;10.05;;;10.10;99.90;;;;;;5076493;28;20372;-77
2021/05/30 05:02:36;;;;;;;13.68;9.13;;;10.10;99.90;;;;;;5076165;28;20479;-77
2021/05/30 05:05:03;;;;;;;11.00;8.82;;;10.20;99.90;;;;;;5076320;28;20081;-77
2021/05/30 05:07:28;;;;;;;17.85;11.98;;;10.20;99.90;;;;;;5076222;28;20020;-77
2021/05/30 05:09:54;;;;;;;15.43;10.70;;;10.20;99.90;;;;;;5082985;28;20058;-78
2021/05/30 05:12:20;;;;;;;14.95;11.63;;;10.20;99.90;;;;;;5096111;28;20024;-78
2021/05/30 05:14:45;;;;;;;25.63;17.33;;;10.20;99.90;;;;;;5094474;28;20399;-78
2021/05/30 05:17:11;;;;;;;25.02;16.67;;;10.30;99.90;;;;;;5080632;28;20028;-77
2021/05/30 05:19:36;;;;;;;26.13;17.30;;;10.30;99.90;;;;;;5076191;28;20031;-77
2021/05/30 05:22:02;;;;;;;18.63;13.85;;;10.30;99.90;;;;;;5076042;28;20024;-77
2021/05/30 05:24:27;;;;;;;22.27;14.40;;;10.30;99.90;;;;;;5075999;28;20063;-77
2021/05/30 05:26:53;;;;;;;22.88;16.00;;;10.30;99.90;;;;;;5075850;28;20024;-77
2021/05/30 05:29:18;;;;;;;19.23;14.43;;;10.40;99.90;;;;;;5074514;28;20375;-77
2021/05/30 05:31:44;;;;;;;21.70;16.55;;;10.40;99.90;;;;;;5075553;28;20134;-78
2021/05/30 05:34:10;;;;;;;30.52;18.38;;;10.40;99.90;;;;;;5074999;28;20028;-78
2021/05/30 05:36:35;;;;;;;27.85;17.30;;;10.40;99.90;;;;;;5075137;28;20480;-77
2021/05/30 05:39:03;;;;;;;20.65;15.32;;;10.50;99.90;;;;;;5075045;28;20041;-77
2021/05/30 05:41:28;;;;;;;19.80;15.32;;;10.50;99.90;;;;;;5072609;28;20023;-77
2021/05/30 05:43:54;;;;;;;20.80;15.45;;;10.50;99.90;;;;;;5074911;28;20021;-77
2021/05/30 05:46:19;;;;;;;23.58;16.40;;;10.50;99.90;;;;;;5072985;28;20024;-77
2021/05/30 05:48:45;;;;;;;22.27;17.88;;;10.60;99.90;;;;;;5074585;28;20103;-77
2021/05/30 05:51:10;;;;;;;22.40;16.83;;;10.60;99.90;;;;;;5075049;28;20387;-77
2021/05/30 05:53:36;;;;;;;22.00;14.32;;;10.60;99.90;;;;;;5074953;28;20050;-77
2021/05/30 05:56:02;;;;;;;20.42;16.27;;;10.60;99.90;;;;;;5074777;28;20025;-77
2021/05/30 05:58:27;;;;;;;24.88;18.98;;;10.70;99.90;;;;;;5074733;28;20021;-77
2021/05/30 06:00:53;;;;;;;24.15;16.90;;;10.70;99.90;;;;;;5074867;28;20021;-78
2021/05/30 06:03:18;;;;;;;26.20;19.23;;;10.70;99.90;;;;;;5074735;28;20066;-79
2021/05/30 06:05:44;;;;;;;27.70;18.45;;;10.70;99.90;;;;;;5073350;28;20054;-78
2021/05/30 06:08:09;;;;;;;24.30;17.88;;;10.80;99.90;;;;;;5074647;28;20067;-76
2021/05/30 06:10:35;;;;;;;28.13;20.25;;;10.80;99.90;;;;;;5074430;28;20024;-76
2021/05/30 06:13:03;;;;;;;28.50;20.05;;;10.90;99.90;;;;;;5073319;28;20020;-76
2021/05/30 06:15:29;;;;;;;26.58;20.63;;;10.90;99.90;;;;;;5071643;28;20023;-78
2021/05/30 06:17:57;;;;;;;24.30;17.73;;;10.90;99.90;;;;;;5074541;28;20021;-77
2021/05/30 06:20:25;;;;;;;24.13;18.40;;;11.00;99.90;;;;;;5073183;28;20491;-77
2021/05/30 06:22:51;;;;;;;25.33;18.45;;;11.00;99.90;;;;;;5074426;28;20024;-79
2021/05/30 06:25:16;;;;;;;25.00;17.13;;;11.10;99.90;;;;;;5074740;28;20028;-78
2021/05/30 06:27:42;;;;;;;28.02;21.50;;;11.10;99.90;;;;;;5073487;28;20032;-78
2021/05/30 06:30:08;;;;;;;23.05;18.50;;;11.10;99.90;;;;;;5074636;28;20468;-78
2021/05/30 06:32:34;;;;;;;26.73;21.00;;;11.20;99.90;;;;;;5074711;28;20022;-78
2021/05/30 06:35:00;;;;;;;24.92;18.58;;;11.20;99.90;;;;;;5074031;28;20040;-77
2021/05/30 06:37:25;;;;;;;31.85;21.83;;;11.20;99.90;;;;;;5074038;28;20020;-77
2021/05/30 06:39:51;;;;;;;29.52;20.98;;;11.20;99.90;;;;;;5073918;28;20093;-77
2021/05/30 06:42:17;;;;;;;26.50;19.50;;;11.30;99.90;;;;;;5073419;28;20032;-77
2021/05/30 06:44:43;;;;;;;32.28;21.67;;;11.30;99.90;;;;;;5073789;28;20029;-77
2021/05/30 06:47:08;;;;;;;30.83;20.98;;;11.40;99.90;;;;;;5073917;28;20476;-76
2021/05/30 06:49:34;;;;;;;28.23;20.05;;;11.40;99.90;;;;;;5073661;28;20086;-78
2021/05/30 06:52:00;;;;;;;26.55;20.58;;;11.50;99.90;;;;;;5073713;28;20062;-80
2021/05/30 06:54:25;;;;;;;32.15;20.55;;;11.50;99.90;;;;;;5073324;28;20088;-77
2021/05/30 06:56:51;;;;;;;32.88;21.63;;;11.60;99.90;;;;;;5073384;28;20472;-78
2021/05/30 06:59:16;;;;;;;25.55;19.90;;;11.60;99.90;;;;;;5073263;28;20088;-78
2021/05/30 07:01:42;;;;;;;27.85;21.15;;;11.70;99.90;;;;;;5073496;28;20020;-77
2021/05/30 07:04:07;;;;;;;27.38;19.67;;;11.80;99.90;;;;;;5073475;28;20025;-77
2021/05/30 07:06:33;;;;;;;26.27;21.02;;;11.80;99.90;;;;;;5073507;28;20031;-78
2021/05/30 07:09:05;;;;;;;28.27;19.90;;;11.90;99.90;;;;;;5073405;28;20028;-78
2021/05/30 07:11:31;;;;;;;25.23;18.92;;;12.00;99.90;;;;;;5073472;28;20385;-77
2021/05/30 07:13:56;;;;;;;24.30;17.88;;;12.00;99.90;;;;;;5073565;28;20494;-77
2021/05/30 07:16:22;;;;;;;28.23;21.48;;;12.10;99.90;;;;;;5072192;28;20028;-77
2021/05/30 07:18:48;;;;;;;22.98;18.42;;;12.20;99.90;;;;;;5072576;28;20016;-77
2021/05/30 07:21:13;;;;;;;28.45;19.95;;;12.20;99.90;;;;;;5073754;28;20028;-77
2021/05/30 07:23:39;;;;;;;25.75;21.88;;;12.30;99.90;;;;;;5071071;28;20025;-77
2021/05/30 07:26:05;;;;;;;23.80;18.17;;;12.40;99.90;;;;;;5073578;28;20039;-77
2021/05/30 07:28:30;;;;;;;25.67;19.73;;;12.40;99.90;;;;;;5073631;28;20031;-77
2021/05/30 07:30:56;;;;;;;21.70;17.05;;;12.50;99.90;;;;;;5071958;28;20028;-77
2021/05/30 07:33:21;;;;;;;27.70;18.88;;;12.60;99.90;;;;;;5072290;28;20025;-77
2021/05/30 07:35:47;;;;;;;30.17;21.75;;;12.70;99.90;;;;;;5077476;28;20025;-77
2021/05/30 07:38:12;;;;;;;28.58;21.50;;;12.80;99.90;;;;;;5072910;28;20485;-78
2021/05/30 07:40:38;;;;;;;22.98;18.02;;;12.90;99.90;;;;;;5072736;28;20060;-78
2021/05/30 07:43:04;;;;;;;24.00;19.10;;;13.00;99.90;;;;;;5072933;28;20016;-77
2021/05/30 07:45:29;;;;;;;26.00;19.52;;;13.10;99.90;;;;;;5072585;28;20105;-77
2021/05/30 07:47:56;;;;;;;26.50;20.63;;;13.20;99.90;;;;;;5072905;28;20097;-77
2021/05/30 07:50:23;;;;;;;25.33;17.85;;;13.30;99.90;;;;;;5072802;28;20029;-77
2021/05/30 07:52:49;;;;;;;25.55;19.83;;;13.40;99.90;;;;;;5073267;28;20032;-78
2021/05/30 07:55:15;;;;;;;25.58;19.35;;;13.50;99.90;;;;;;5071434;28;20040;-79
2021/05/30 07:57:41;;;;;;;21.13;17.42;;;13.70;99.90;;;;;;5072768;28;20024;-79
2021/05/30 08:00:09;;;;;;;19.50;15.23;;;13.80;99.90;;;;;;5072618;28;20023;-78
2021/05/30 08:02:35;;;;;;;24.65;19.80;;;13.90;99.90;;;;;;5073009;28;20032;-79
2021/05/30 08:05:02;;;;;;;27.15;19.58;;;14.00;99.90;;;;;;5071380;28;20062;-79
2021/05/30 08:07:28;;;;;;;28.90;20.58;;;14.10;99.90;;;;;;5072618;28;20055;-79
2021/05/30 08:09:53;;;;;;;25.90;18.80;;;14.30;99.90;;;;;;5071579;28;20442;-79
2021/05/30 08:12:19;;;;;;;26.48;18.30;;;14.40;99.90;;;;;;5072998;28;20071;-79
2021/05/30 08:14:44;;;;;;;23.15;18.05;;;14.50;99.90;;;;;;5072452;28;20033;-79
2021/05/30 08:17:10;;;;;;;25.23;18.05;;;14.50;99.90;;;;;;5072268;28;20029;-79
2021/05/30 08:19:36;;;;;;;22.88;17.83;;;14.70;99.90;;;;;;5071287;28;20021;-79
2021/05/30 08:22:02;;;;;;;23.67;18.42;;;14.80;99.90;;;;;;5072558;28;20082;-81
2021/05/30 08:24:27;;;;;;;20.10;15.50;;;14.90;99.90;;;;;;5072399;28;20484;-79
2021/05/30 08:26:55;;;;;;;20.77;16.98;;;15.10;99.80;;;;;;5072381;28;20029;-79
2021/05/30 08:29:24;;;;;;;23.90;16.33;;;15.20;99.80;;;;;;5072351;28;20081;-79
2021/05/30 08:31:51;;;;;;;18.92;14.38;;;15.30;99.30;;;;;;5071805;28;20078;-78
2021/05/30 08:34:18;;;;;;;20.23;16.17;;;15.50;99.20;;;;;;5072723;28;20035;-78
2021/05/30 08:36:43;;;;;;;20.60;16.75;;;15.60;99.10;;;;;;5072603;28;20029;-78
2021/05/30 08:39:09;;;;;;;19.42;15.75;;;15.70;98.10;;;;;;5072568;28;20047;-78
2021/05/30 08:41:35;;;;;;;17.13;14.60;;;15.80;97.50;;;;;;5071496;28;20398;-78
2021/05/30 08:44:01;;;;;;;16.65;14.35;;;16.00;97.20;;;;;;5071486;28;20112;-78
2021/05/30 08:46:30;;;;;;;19.00;13.93;;;16.00;96.90;;;;;;5071217;28;20065;-79
2021/05/30 08:48:56;;;;;;;18.48;15.27;;;16.20;96.40;;;;;;5072683;28;20033;-79
2021/05/30 08:51:22;;;;;;;19.58;15.23;;;16.20;95.40;;;;;;5072420;28;20553;-79
2021/05/30 08:53:48;;;;;;;19.75;15.23;;;16.40;95.50;;;;;;5069799;28;20032;-77
2021/05/30 08:56:16;;;;;;;16.80;12.70;;;16.50;95.30;;;;;;5072015;28;20055;-79
2021/05/30 08:58:44;;;;;;;16.60;13.07;;;16.60;95.00;;;;;;5072646;28;20025;-79
2021/05/30 09:01:15;;;;;;;12.25;9.60;;;16.70;94.70;;;;;;5072671;28;20078;-78
2021/05/30 09:04:03;;;;;;;11.02;8.48;;;16.90;94.70;;;;;;5072301;28;20027;-78
2021/05/30 09:06:29;;;;;;;13.20;11.05;;;17.10;94.50;;;;;;5073723;28;20024;-79
2021/05/30 09:08:54;;;;;;;12.50;10.77;;;17.30;94.30;;;;;;5075608;28;20035;-79
2021/05/30 09:11:39;;;;;;;14.65;11.15;;;17.40;94.00;;;;;;5075542;28;20028;-79
2021/05/30 09:14:09;;;;;;;11.63;10.43;;;17.50;93.60;;;;;;5089024;28;20032;-79
2021/05/30 09:16:59;;;;;;;9.75;8.55;;;17.60;93.40;;;;;;5075171;28;20031;-79
2021/05/30 09:19:44;;;;;;;8.68;7.72;;;17.80;92.90;;;;;;5073603;28;20131;-80
2021/05/30 09:22:33;;;;;;;10.25;7.35;;;17.70;92.60;;;;;;5074517;28;20094;-81
2021/05/30 09:25:06;;;;;;;9.55;6.90;;;17.80;92.40;;;;;;5055971;28;20032;-80
2021/05/30 09:27:41;;;;;;;12.88;8.25;;;18.00;91.90;;;;;;5061598;28;20059;-80
2021/05/30 09:30:18;;;;;;;8.07;6.88;;;18.10;88.90;;;;;;5074155;28;20023;-80
2021/05/30 09:33:02;;;;;;;7.55;6.22;;;18.30;89.40;;;;;;5072660;28;20021;-80
2021/05/30 09:35:37;;;;;;;9.57;7.28;;;18.50;90.00;;;;;;5074165;28;20028;-79
2021/05/30 09:38:06;;;;;;;9.18;6.20;;;18.60;89.50;;;;;;5073579;28;20044;-79
2021/05/30 09:40:40;;;;;;;9.48;7.43;;;18.80;89.50;;;;;;5075428;28;20044;-78
2021/05/30 09:43:08;;;;;;;8.77;7.13;;;18.90;88.60;;;;;;5074611;28;20071;-79
2021/05/30 09:45:38;;;;;;;6.78;5.63;;;19.10;88.20;;;;;;5075401;28;20028;-78
2021/05/30 09:48:13;;;;;;;8.50;6.35;;;19.20;87.90;;;;;;5074428;28;20085;-79
2021/05/30 09:50:38;;;;;;;9.13;7.85;;;19.30;87.20;;;;;;5075568;28;20059;-82
2021/05/30 09:53:06;;;;;;;7.30;6.53;;;19.40;85.10;;;;;;5074274;28;20032;-82
2021/05/30 09:55:32;;;;;;;7.55;6.55;;;19.50;84.40;;;;;;5075242;28;20032;-82
2021/05/30 09:58:11;;;;;;;8.57;7.35;;;19.60;83.80;;;;;;5074597;28;20035;-83
2021/05/30 10:00:38;;;;;;;6.85;5.38;;;19.90;85.80;;;;;;5072761;28;20017;-84
2021/05/30 10:03:04;;;;;;;8.30;5.30;;;20.50;84.70;;;;;;5075342;28;20056;-84
2021/05/30 10:05:30;;;;;;;5.45;4.15;;;23.10;78.10;;;;;;5073427;28;20021;-84
2021/05/30 10:07:56;;;;;;;4.47;3.70;;;26.00;70.00;;;;;;5074791;28;20095;-81
2021/05/30 10:10:22;;;;;;;4.43;3.00;;;28.40;61.20;;;;;;5075202;28;20020;-80
2021/05/30 10:12:47;;;;;;;4.70;3.60;;;30.10;56.30;;;;;;5074042;28;20029;-81
2021/05/30 10:15:14;;;;;;;4.40;3.40;;;31.30;50.60;;;;;;5074975;28;20033;-79
2021/05/30 10:17:41;;;;;;;3.50;2.97;;;32.20;47.20;;;;;;5073975;28;20024;-79
2021/05/30 10:20:09;;;;;;;4.22;3.20;;;33.10;44.40;;;;;;5074747;28;20103;-79
2021/05/30 10:22:36;;;;;;;3.08;2.45;;;34.10;42.80;;;;;;5074992;28;20100;-80
2021/05/30 10:25:03;;;;;;;4.53;3.15;;;34.90;41.30;;;;;;5074823;28;20029;-79
2021/05/30 10:27:29;;;;;;;2.80;2.35;;;35.30;38.30;;;;;;5073245;28;20021;-79
2021/05/30 10:30:10;;;;;;;3.30;2.60;;;36.00;38.40;;;;;;5073351;28;20028;-80
2021/05/30 10:32:38;;;;;;;3.83;3.00;;;36.80;37.10;;;;;;5073459;28;20384;-80
2021/05/30 10:35:23;;;;;;;3.80;3.10;;;37.40;34.90;;;;;;5073166;28;20177;-79
2021/05/30 10:37:57;;;;;;;3.38;3.08;;;37.90;34.00;;;;;;5074543;28;20472;-80
2021/05/30 10:40:22;;;;;;;3.55;3.15;;;38.40;33.00;;;;;;5074281;28;20047;-80
2021/05/30 10:43:10;;;;;;;2.33;2.05;;;38.60;33.10;;;;;;5074452;28;20020;-80
2021/05/30 10:45:46;;;;;;;2.13;1.63;;;39.20;33.80;;;;;;5074330;28;20029;-80
2021/05/30 10:48:17;;;;;;;1.92;1.67;;;39.50;34.40;;;;;;5073209;28;20037;-79
2021/05/30 10:53:42;;;;;;;1.60;1.50;;;40.30;33.30;;;;;;5054696;28;20093;-80
2021/05/30 10:56:34;;;;;;;2.80;1.60;;;41.10;33.20;;;;;;5072706;28;20032;-79
2021/05/30 10:59:06;;;;;;;3.28;2.55;;;41.60;31.80;;;;;;5072949;28;20025;-80
2021/05/30 11:01:39;;;;;;;1.95;1.75;;;42.00;29.20;;;;;;5074112;28;20013;-80
2021/05/30 11:04:30;;;;;;;2.53;2.00;;;41.90;29.80;;;;;;5074122;28;20469;-80
2021/05/30 11:07:01;;;;;;;2.45;1.85;;;42.00;29.70;;;;;;5073635;28;20107;-80
2021/05/30 11:09:53;;;;;;;2.30;2.13;;;42.30;29.50;;;;;;5073998;28;20077;-81
2021/05/30 11:12:29;;;;;;;2.13;1.75;;;42.60;28.20;;;;;;5074106;28;20033;-80
2021/05/30 11:15:10;;;;;;;2.25;2.03;;;42.40;28.60;;;;;;5073880;28;20043;-81
2021/05/30 11:17:39;;;;;;;1.77;1.58;;;42.50;28.80;;;;;;5073637;28;20016;-80
2021/05/30 11:20:10;;;;;;;1.92;1.83;;;41.70;28.90;;;;;;5072467;28;20032;-80
2021/05/30 11:22:46;;;;;;;2.08;1.85;;;41.80;28.40;;;;;;5073863;28;20018;-79
2021/05/30 11:25:12;;;;;;;2.60;2.20;;;42.30;28.00;;;;;;5073675;28;20021;-80
2021/05/30 11:28:11;;;;;;;1.70;1.60;;;42.80;27.40;;;;;;5072266;28;20492;-80
2021/05/30 11:30:44;;;;;;;1.73;1.63;;;43.00;27.80;;;;;;5062096;28;20036;-80
2021/05/30 11:33:20;;;;;;;2.00;1.80;;;43.20;27.50;;;;;;5073630;28;20025;-80
2021/05/30 11:35:53;;;;;;;2.08;1.83;;;43.30;26.90;;;;;;5073208;28;20028;-80
2021/05/30 11:38:19;;;;;;;1.70;1.60;;;43.50;27.00;;;;;;5073169;28;20426;-80
2021/05/30 11:40:45;;;;;;;1.55;1.33;;;43.80;27.10;;;;;;5070154;28;20504;-80
2021/05/30 11:43:16;;;;;;;1.60;1.50;;;43.80;27.10;;;;;;5072820;28;20032;-80
2021/05/30 11:45:47;;;;;;;2.30;2.08;;;44.10;26.90;;;;;;5072837;28;20024;-80
2021/05/30 11:48:18;;;;;;;1.90;1.80;;;44.40;26.50;;;;;;5070317;28;20020;-80
2021/05/30 11:50:53;;;;;;;1.70;1.48;;;44.50;25.90;;;;;;5072921;28;20024;-80
2021/05/30 11:53:35;;;;;;;1.35;1.25;;;44.10;26.70;;;;;;5073204;28;20017;-80
2021/05/30 11:56:05;;;;;;;1.75;1.50;;;44.30;26.80;;;;;;5073124;28;20025;-80
2021/05/30 11:58:32;;;;;;;2.25;1.70;;;44.20;26.50;;;;;;5072020;28;20052;-81
2021/05/30 12:01:02;;;;;;;1.90;1.52;;;44.00;26.30;;;;;;5073305;28;20082;-80
2021/05/30 12:03:28;;;;;;;1.63;1.52;;;44.00;26.30;;;;;;5073329;28;20033;-80
2021/05/30 12:06:03;;;;;;;1.70;1.60;;;43.70;26.40;;;;;;5073111;28;20035;-80
2021/05/30 12:08:30;;;;;;;1.40;1.30;;;43.60;26.30;;;;;;5072969;28;20025;-80
2021/05/30 12:11:00;;;;;;;1.65;1.10;;;43.20;26.60;;;;;;5073206;28;20365;-81
2021/05/30 12:13:37;;;;;;;2.05;1.23;;;42.20;26.90;;;;;;5073229;28;20020;-80
2021/05/30 12:16:17;;;;;;;1.75;1.40;;;42.00;26.90;;;;;;5072984;28;20020;-81
2021/05/30 12:18:57;;;;;;;1.90;1.15;;;42.10;26.30;;;;;;5072795;28;20049;-81
2021/05/30 12:21:46;;;;;;;1.30;1.15;;;42.30;26.50;;;;;;5073019;28;20032;-87
2021/05/30 12:24:16;;;;;;;2.03;1.50;;;42.50;26.80;;;;;;5061761;28;20044;-81
2021/05/30 12:26:43;;;;;;;1.55;1.30;;;42.60;26.40;;;;;;5071474;28;20036;-80
2021/05/30 12:29:09;;;;;;;1.30;1.10;;;42.70;26.50;;;;;;5072953;28;20028;-79
2021/05/30 12:31:35;;;;;;;1.77;1.20;;;42.80;26.40;;;;;;5072846;28;20025;-79
2021/05/30 12:34:03;;;;;;;1.52;1.20;;;42.70;26.20;;;;;;5072897;28;20081;-80
2021/05/30 12:36:44;;;;;;;1.48;1.30;;;42.40;26.20;;;;;;5072750;28;20025;-79
2021/05/30 12:39:17;;;;;;;2.67;2.47;;;42.20;26.10;;;;;;5072563;28;20048;-80
2021/05/30 12:41:48;;;;;;;2.90;2.67;;;40.70;26.50;;;;;;5074102;28;20020;-81
2021/05/30 12:44:21;;;;;;;2.65;2.45;;;40.70;26.50;;;;;;5076703;28;20405;-80
2021/05/30 12:46:59;;;;;;;2.20;2.10;;;41.00;26.60;;;;;;5076488;28;20033;-80